Time;durP1;ratioP1;P1;durP2;ratioP2;P2;SDS_P1;SDS_P2;PMS_P1;PMS_P2;Temp;Humidity;BMP_temperature;BMP_pressure;BME280_temperature;BME280_humidity;BME280_pressure;Samples;Min_cycle;Max_cycle;Signal;HPM_P1;HPM_P2
2023/09/11 00:00:49;;;;;;;;;;;26.10;1.00;;;;;;4954773;29;20062;-63
2023/09/11 00:03:16;;;;;;;;;;;26.10;1.00;;;;;;4954630;29;19927;-63
2023/09/11 00:05:43;;;;;;;;;;;26.10;1.00;;;;;;4954539;29;20386;-63
2023/09/11 00:08:29;;;;;;;;;;;26.10;1.00;;;;;;4947680;29;19932;-63
2023/09/11 00:10:57;;;;;;;;;;;26.10;1.00;;;;;;4954653;29;19933;-63
2023/09/11 00:13:24;;;;;;;;;;;26.10;1.00;;;;;;4954724;29;20313;-63
2023/09/11 00:15:50;;;;;;;;;;;26.10;1.00;;;;;;4954095;29;19927;-63
2023/09/11 00:18:17;;;;;;;;;;;26.10;1.00;;;;;;4954211;28;19981;-63
2023/09/11 00:20:44;;;;;;;;;;;26.10;1.00;;;;;;4954272;29;19937;-64
2023/09/11 00:23:11;;;;;;;;;;;26.10;1.00;;;;;;4954376;29;19959;-63
2023/09/11 00:25:37;;;;;;;;;;;26.10;1.00;;;;;;4954347;29;19926;-63
2023/09/11 00:28:04;;;;;;;;;;;26.10;1.00;;;;;;4954022;29;19935;-63
2023/09/11 00:30:31;;;;;;;;;;;26.10;1.00;;;;;;4937013;29;19934;-63
2023/09/11 00:32:58;;;;;;;;;;;26.10;1.00;;;;;;4937145;29;20394;-63
2023/09/11 00:35:25;;;;;;;;;;;26.10;1.00;;;;;;4933785;29;20013;-63
2023/09/11 00:37:51;;;;;;;;;;;26.10;1.00;;;;;;4932574;29;19930;-63
2023/09/11 00:40:18;;;;;;;;;;;26.10;1.00;;;;;;4935959;29;19927;-63
2023/09/11 00:42:45;;;;;;;;;;;26.10;1.00;;;;;;4933813;29;19939;-63
2023/09/11 00:45:12;;;;;;;;;;;26.10;1.00;;;;;;4952360;29;19974;-63
2023/09/11 00:47:39;;;;;;;;;;;26.10;1.00;;;;;;4953860;28;19927;-63
2023/09/11 00:50:08;;;;;;;;;;;26.10;1.00;;;;;;4952884;29;19933;-63
2023/09/11 00:52:35;;;;;;;;;;;26.00;1.00;;;;;;4952761;29;20309;-63
2023/09/11 00:55:02;;;;;;;;;;;26.10;1.00;;;;;;4952891;29;19927;-63
2023/09/11 00:57:29;;;;;;;;;;;26.00;1.00;;;;;;4938113;29;19933;-63
2023/09/11 00:59:56;;;;;;;;;;;26.00;1.00;;;;;;4933675;29;19934;-63
2023/09/11 01:02:23;;;;;;;;;;;26.00;1.00;;;;;;4947073;29;19935;-63
2023/09/11 01:04:50;;;;;;;;;;;26.00;1.00;;;;;;4933654;29;19926;-63
2023/09/11 01:07:17;;;;;;;;;;;26.00;1.00;;;;;;4949427;29;19934;-63
2023/09/11 01:09:44;;;;;;;;;;;26.00;1.00;;;;;;4954152;28;20026;-63
2023/09/11 01:12:11;;;;;;;;;;;26.00;1.00;;;;;;4953791;29;19927;-63
2023/09/11 01:14:37;;;;;;;;;;;26.00;1.00;;;;;;4953993;29;19926;-63
2023/09/11 01:17:05;;;;;;;;;;;26.00;1.00;;;;;;4952231;29;19933;-63
2023/09/11 01:19:32;;;;;;;;;;;26.00;1.00;;;;;;4954117;29;19926;-63
2023/09/11 01:22:05;;;;;;;;;;;26.00;1.00;;;;;;4952521;29;20002;-64
2023/09/11 01:24:34;;;;;;;;;;;26.00;1.00;;;;;;4954317;29;19930;-64
2023/09/11 01:27:10;;;;;;;;;;;26.00;1.00;;;;;;4952311;29;20006;-64
2023/09/11 01:29:38;;;;;;;;;;;26.00;1.00;;;;;;4953954;28;20032;-64
2023/09/11 01:32:05;;;;;;;;;;;26.00;1.00;;;;;;4956331;29;19933;-64
2023/09/11 01:34:32;;;;;;;;;;;26.00;1.00;;;;;;4953116;29;20022;-64
2023/09/11 01:36:59;;;;;;;;;;;26.00;1.00;;;;;;4932448;29;19965;-64
2023/09/11 01:39:26;;;;;;;;;;;26.00;1.00;;;;;;4939392;29;19933;-64
2023/09/11 01:41:54;;;;;;;;;;;26.00;1.00;;;;;;4936954;29;20368;-64
2023/09/11 01:44:27;;;;;;;;;;;25.90;1.00;;;;;;4955944;29;19946;-63
2023/09/11 01:46:56;;;;;;;;;;;25.90;1.00;;;;;;4955731;29;19926;-63
2023/09/11 01:49:24;;;;;;;;;;;25.90;1.00;;;;;;4955990;29;20374;-63
2023/09/11 01:51:54;;;;;;;;;;;25.90;1.00;;;;;;4955750;29;19927;-63
2023/09/11 01:54:21;;;;;;;;;;;25.90;1.00;;;;;;4957545;28;19949;-63
2023/09/11 01:56:48;;;;;;;;;;;25.90;1.00;;;;;;4946585;29;19970;-63
2023/09/11 01:59:14;;;;;;;;;;;25.90;1.00;;;;;;4940071;29;20017;-63
2023/09/11 02:01:44;;;;;;;;;;;25.90;1.00;;;;;;4955885;29;19985;-63
2023/09/11 02:04:11;;;;;;;;;;;25.90;1.00;;;;;;4955664;29;19938;-63
2023/09/11 02:06:38;;;;;;;;;;;25.90;1.00;;;;;;5261784;23;20164;-63
2023/09/11 02:09:05;;;;;;;;;;;25.90;1.00;;;;;;4951637;29;20421;-62
2023/09/11 02:11:32;;;;;;;;;;;25.90;1.00;;;;;;4956668;29;19932;-63
2023/09/11 02:13:59;;;;;;;;;;;25.90;1.00;;;;;;4955446;29;19927;-63
2023/09/11 02:16:28;;;;;;;;;;;25.90;1.00;;;;;;4949233;29;20392;-63
2023/09/11 02:18:54;;;;;;;;;;;25.90;1.00;;;;;;4937572;29;19927;-63
2023/09/11 02:21:23;;;;;;;;;;;25.90;1.00;;;;;;4936152;29;19931;-63
2023/09/11 02:23:52;;;;;;;;;;;25.90;1.00;;;;;;4925887;29;19926;-63
2023/09/11 02:26:18;;;;;;;;;;;25.90;1.00;;;;;;4933601;29;19934;-63
2023/09/11 02:28:45;;;;;;;;;;;25.90;1.00;;;;;;4935980;29;19933;-64
2023/09/11 02:31:14;;;;;;;;;;;25.90;1.00;;;;;;4937188;29;20017;-63
2023/09/11 02:33:40;;;;;;;;;;;25.90;1.00;;;;;;4936054;29;19935;-63
2023/09/11 02:36:07;;;;;;;;;;;25.90;1.00;;;;;;4935482;29;20379;-63
2023/09/11 02:38:34;;;;;;;;;;;25.90;1.00;;;;;;4935413;29;19926;-64
2023/09/11 02:41:01;;;;;;;;;;;25.80;1.00;;;;;;4935823;29;19933;-63
2023/09/11 02:43:36;;;;;;;;;;;25.90;1.00;;;;;;4935401;29;20017;-63
2023/09/11 02:46:02;;;;;;;;;;;25.80;1.00;;;;;;4935527;29;19933;-63
2023/09/11 02:48:31;;;;;;;;;;;25.80;1.00;;;;;;4935468;29;19927;-63
2023/09/11 02:50:59;;;;;;;;;;;25.80;1.00;;;;;;4936908;29;19970;-63
2023/09/11 02:53:26;;;;;;;;;;;25.80;1.00;;;;;;4936936;29;19968;-63
2023/09/11 02:55:53;;;;;;;;;;;25.80;1.00;;;;;;4936574;29;20306;-63
2023/09/11 02:58:19;;;;;;;;;;;25.80;1.00;;;;;;4933154;29;19927;-63
2023/09/11 03:00:46;;;;;;;;;;;25.80;1.00;;;;;;4936804;29;19981;-63
2023/09/11 03:03:13;;;;;;;;;;;25.80;1.00;;;;;;4936804;29;20282;-63
2023/09/11 03:05:40;;;;;;;;;;;25.80;1.00;;;;;;4936557;29;20382;-63
2023/09/11 03:08:07;;;;;;;;;;;25.80;1.00;;;;;;4935160;29;20302;-63
2023/09/11 03:10:34;;;;;;;;;;;25.80;1.00;;;;;;4935282;29;19986;-63
2023/09/11 03:13:01;;;;;;;;;;;25.80;1.00;;;;;;4935211;29;19930;-63
2023/09/11 03:15:29;;;;;;;;;;;25.80;1.00;;;;;;4935311;29;19980;-63
2023/09/11 03:17:56;;;;;;;;;;;25.70;1.00;;;;;;4934903;29;19927;-63
2023/09/11 03:20:23;;;;;;;;;;;25.80;1.00;;;;;;4936370;29;19927;-63
2023/09/11 03:22:50;;;;;;;;;;;25.80;1.00;;;;;;4936398;29;19935;-63
2023/09/11 03:25:17;;;;;;;;;;;25.70;1.00;;;;;;4935066;29;19927;-63
2023/09/11 03:27:44;;;;;;;;;;;25.70;1.00;;;;;;4934600;29;20398;-63
2023/09/11 03:30:11;;;;;;;;;;;25.70;1.00;;;;;;4934930;29;19927;-63
2023/09/11 03:32:38;;;;;;;;;;;25.70;1.00;;;;;;4934787;29;19934;-63
2023/09/11 03:35:06;;;;;;;;;;;25.80;1.00;;;;;;4934838;29;20034;-63
2023/09/11 03:37:35;;;;;;;;;;;25.80;1.00;;;;;;4934396;29;19934;-63
2023/09/11 03:40:07;;;;;;;;;;;25.70;1.00;;;;;;4934683;29;19927;-63
2023/09/11 03:42:35;;;;;;;;;;;25.70;1.00;;;;;;4934795;29;19931;-63
2023/09/11 03:45:02;;;;;;;;;;;25.70;1.00;;;;;;4934752;29;19927;-63
2023/09/11 03:47:29;;;;;;;;;;;25.70;1.00;;;;;;4934211;29;19927;-62
2023/09/11 03:49:56;;;;;;;;;;;25.70;1.00;;;;;;4935877;29;19926;-63
2023/09/11 03:52:23;;;;;;;;;;;25.70;1.00;;;;;;4934354;29;19939;-63
2023/09/11 03:54:50;;;;;;;;;;;25.70;1.00;;;;;;4933919;29;19933;-63
2023/09/11 03:57:17;;;;;;;;;;;25.70;1.00;;;;;;4934052;29;19927;-63
2023/09/11 03:59:44;;;;;;;;;;;25.70;1.00;;;;;;4935754;29;20267;-63
2023/09/11 04:02:11;;;;;;;;;;;25.70;1.00;;;;;;4922286;29;19937;-63
2023/09/11 04:04:38;;;;;;;;;;;25.70;1.00;;;;;;4935539;29;19934;-63
2023/09/11 04:07:05;;;;;;;;;;;25.70;1.00;;;;;;4933846;29;20022;-63
2023/09/11 04:09:32;;;;;;;;;;;25.70;1.00;;;;;;4935518;29;19933;-63
2023/09/11 04:12:00;;;;;;;;;;;25.70;1.00;;;;;;4922098;29;20112;-64
2023/09/11 04:14:27;;;;;;;;;;;25.70;1.00;;;;;;4931640;29;20012;-63
2023/09/11 04:16:54;;;;;;;;;;;25.60;1.00;;;;;;4930694;29;19927;-63
2023/09/11 04:19:20;;;;;;;;;;;25.50;1.00;;;;;;4931550;29;19980;-63
2023/09/11 04:21:47;;;;;;;;;;;25.40;1.00;;;;;;4934075;29;19927;-63
2023/09/11 04:24:14;;;;;;;;;;;25.40;1.00;;;;;;4934009;29;20029;-63
2023/09/11 04:26:43;;;;;;;;;;;25.40;1.00;;;;;;4933640;29;19934;-64
2023/09/11 04:29:10;;;;;;;;;;;25.40;1.00;;;;;;4934143;29;19941;-64
2023/09/11 04:31:38;;;;;;;;;;;25.40;1.00;;;;;;4933657;29;19942;-64
2023/09/11 04:34:05;;;;;;;;;;;25.40;1.00;;;;;;4928594;29;20009;-64
2023/09/11 04:36:32;;;;;;;;;;;25.40;1.00;;;;;;4933506;29;20310;-64
2023/09/11 04:38:59;;;;;;;;;;;25.40;1.00;;;;;;4933867;29;19934;-64
2023/09/11 04:41:26;;;;;;;;;;;25.40;1.00;;;;;;4934981;29;19934;-64
2023/09/11 04:43:53;;;;;;;;;;;25.40;1.00;;;;;;4935249;29;19930;-63
2023/09/11 04:46:20;;;;;;;;;;;25.40;1.00;;;;;;4933365;29;19927;-63
2023/09/11 04:48:49;;;;;;;;;;;25.40;1.00;;;;;;4933111;29;21416;-62
2023/09/11 04:51:16;;;;;;;;;;;25.40;1.00;;;;;;4933586;29;20029;-63
2023/09/11 04:53:42;;;;;;;;;;;25.40;1.00;;;;;;4919857;29;19943;-64
2023/09/11 04:56:09;;;;;;;;;;;25.40;1.00;;;;;;4927458;29;20723;-63
2023/09/11 04:58:36;;;;;;;;;;;25.30;1.00;;;;;;4933955;29;19927;-63
2023/09/11 05:01:04;;;;;;;;;;;25.30;1.00;;;;;;4932933;29;19962;-63
2023/09/11 05:03:32;;;;;;;;;;;25.30;1.00;;;;;;4932863;29;19962;-62
2023/09/11 05:05:59;;;;;;;;;;;25.40;1.00;;;;;;4934669;29;20404;-62
2023/09/11 05:08:26;;;;;;;;;;;25.30;1.00;;;;;;4937459;29;19927;-63
2023/09/11 05:10:54;;;;;;;;;;;25.30;1.00;;;;;;4936920;29;19938;-62
2023/09/11 05:13:21;;;;;;;;;;;25.40;1.00;;;;;;4937256;29;19930;-62
2023/09/11 05:18:39;;;;;;;;;;;25.30;1.00;;;;;;5084203;23;19953;-63
2023/09/11 05:21:06;;;;;;;;;;;25.30;1.00;;;;;;4975427;28;19934;-63
2023/09/11 05:23:35;;;;;;;;;;;25.30;1.00;;;;;;4976952;28;20464;-62
2023/09/11 05:26:03;;;;;;;;;;;25.30;1.00;;;;;;4973668;28;19973;-63
2023/09/11 05:28:29;;;;;;;;;;;25.30;1.00;;;;;;4957312;28;19931;-63
2023/09/11 05:30:56;;;;;;;;;;;25.30;1.00;;;;;;4957481;29;19927;-63
2023/09/11 05:33:23;;;;;;;;;;;25.30;1.00;;;;;;4957507;29;20353;-63
2023/09/11 05:35:50;;;;;;;;;;;25.40;1.00;;;;;;4957113;28;19953;-63
2023/09/11 05:38:17;;;;;;;;;;;25.30;1.00;;;;;;4957511;29;19981;-63
2023/09/11 05:40:44;;;;;;;;;;;25.30;1.00;;;;;;4957180;29;19926;-63
2023/09/11 05:43:10;;;;;;;;;;;25.30;1.00;;;;;;4957230;29;20382;-63
2023/09/11 05:45:37;;;;;;;;;;;25.30;1.00;;;;;;4957138;28;19927;-63
2023/09/11 05:48:04;;;;;;;;;;;25.30;1.00;;;;;;4957059;28;19933;-63
2023/09/11 05:50:31;;;;;;;;;;;25.30;1.00;;;;;;4957462;29;20330;-74
2023/09/11 05:52:59;;;;;;;;;;;25.20;1.00;;;;;;4957243;29;20197;-73
2023/09/11 05:58:43;;;;;;;;;;;25.30;1.00;;;;;;6014706;23;19921;-62
2023/09/11 06:01:09;;;;;;;;;;;25.20;1.00;;;;;;4972298;28;19930;-63
2023/09/11 06:03:36;;;;;;;;;;;25.30;1.00;;;;;;4973825;28;20373;-63
2023/09/11 06:06:03;;;;;;;;;;;25.20;1.00;;;;;;4972794;28;19926;-63
2023/09/11 06:08:32;;;;;;;;;;;25.30;1.00;;;;;;4956852;29;19926;-64
2023/09/11 06:10:59;;;;;;;;;;;25.30;1.00;;;;;;4956891;28;19927;-63
2023/09/11 06:13:26;;;;;;;;;;;25.20;1.00;;;;;;4956663;28;20021;-64
2023/09/11 06:15:53;;;;;;;;;;;25.20;1.00;;;;;;4956188;28;19927;-64
2023/09/11 06:18:20;;;;;;;;;;;25.20;1.00;;;;;;4955887;29;19927;-64
2023/09/11 06:20:47;;;;;;;;;;;25.20;1.00;;;;;;4956516;29;19927;-64
2023/09/11 06:23:14;;;;;;;;;;;25.20;1.00;;;;;;4956668;29;20307;-64
2023/09/11 06:25:40;;;;;;;;;;;25.20;1.00;;;;;;4956564;29;20529;-65
2023/09/11 06:28:07;;;;;;;;;;;25.20;1.00;;;;;;4955128;29;19927;-64
2023/09/11 06:30:34;;;;;;;;;;;25.20;1.00;;;;;;4956318;29;20417;-64
2023/09/11 06:33:01;;;;;;;;;;;25.20;1.00;;;;;;4956684;29;19926;-64
2023/09/11 06:35:27;;;;;;;;;;;25.20;1.00;;;;;;4956496;28;19962;-64
2023/09/11 06:37:54;;;;;;;;;;;25.20;1.00;;;;;;4956308;28;19981;-64
2023/09/11 06:40:21;;;;;;;;;;;25.20;1.00;;;;;;4956415;29;19934;-64
2023/09/11 06:42:48;;;;;;;;;;;25.20;1.00;;;;;;4956322;29;19932;-63
2023/09/11 06:45:14;;;;;;;;;;;25.20;1.00;;;;;;4956444;29;19927;-64
2023/09/11 06:47:42;;;;;;;;;;;25.20;1.00;;;;;;4955850;28;19930;-64
2023/09/11 06:50:09;;;;;;;;;;;25.20;1.00;;;;;;4956199;28;19926;-64
2023/09/11 06:52:38;;;;;;;;;;;25.20;1.00;;;;;;4955952;29;19934;-63
2023/09/11 06:55:08;;;;;;;;;;;25.20;1.00;;;;;;4955980;28;19932;-63
2023/09/11 06:57:39;;;;;;;;;;;25.20;1.00;;;;;;4955730;28;19935;-63
2023/09/11 07:00:10;;;;;;;;;;;25.20;1.00;;;;;;4955965;29;19966;-63
2023/09/11 07:02:45;;;;;;;;;;;25.20;1.00;;;;;;4956072;28;19958;-63
2023/09/11 07:05:12;;;;;;;;;;;25.20;1.00;;;;;;4955991;29;20521;-63
2023/09/11 07:07:39;;;;;;;;;;;25.20;1.00;;;;;;4955553;28;19934;-63
2023/09/11 07:10:07;;;;;;;;;;;25.20;1.00;;;;;;4956096;29;19934;-63
2023/09/11 07:12:33;;;;;;;;;;;25.20;1.00;;;;;;4955774;28;20034;-63
2023/09/11 07:15:00;;;;;;;;;;;25.20;1.00;;;;;;4955852;29;19934;-63
2023/09/11 07:17:28;;;;;;;;;;;25.20;1.00;;;;;;4955448;28;19954;-63
2023/09/11 07:19:55;;;;;;;;;;;25.20;1.00;;;;;;4955600;28;19930;-63
2023/09/11 07:22:22;;;;;;;;;;;25.20;1.00;;;;;;4955791;29;19970;-63
2023/09/11 07:24:48;;;;;;;;;;;25.20;1.00;;;;;;4955688;29;19942;-63
2023/09/11 07:27:15;;;;;;;;;;;25.20;1.00;;;;;;4955204;28;20306;-63
2023/09/11 07:29:42;;;;;;;;;;;25.20;1.00;;;;;;4955284;28;20017;-63
2023/09/11 07:32:08;;;;;;;;;;;25.20;1.00;;;;;;4955319;29;19954;-63
2023/09/11 07:34:35;;;;;;;;;;;25.20;1.00;;;;;;4955340;29;19933;-63
2023/09/11 07:37:03;;;;;;;;;;;25.20;1.00;;;;;;4954822;28;20350;-63
2023/09/11 07:39:30;;;;;;;;;;;25.20;1.00;;;;;;4955262;28;19926;-63
2023/09/11 07:41:56;;;;;;;;;;;25.20;1.00;;;;;;4954960;29;19933;-63
2023/09/11 07:44:25;;;;;;;;;;;25.20;1.00;;;;;;4955292;29;19930;-63
2023/09/11 07:46:52;;;;;;;;;;;25.20;1.00;;;;;;4954735;28;19930;-63
2023/09/11 07:49:19;;;;;;;;;;;25.20;1.00;;;;;;4954971;28;19926;-63
2023/09/11 07:51:45;;;;;;;;;;;25.20;1.00;;;;;;4955062;29;20531;-63
2023/09/11 07:54:12;;;;;;;;;;;25.20;1.00;;;;;;4953868;29;20359;-63
2023/09/11 07:56:39;;;;;;;;;;;25.20;1.00;;;;;;4954719;28;20350;-63
2023/09/11 07:59:06;;;;;;;;;;;25.20;1.00;;;;;;4954765;29;19927;-62
2023/09/11 08:01:32;;;;;;;;;;;25.20;1.00;;;;;;4954811;29;20426;-63
2023/09/11 08:03:59;;;;;;;;;;;25.20;1.00;;;;;;4954696;28;19926;-63
2023/09/11 08:06:27;;;;;;;;;;;25.20;1.00;;;;;;4954440;28;19931;-63
2023/09/11 08:08:56;;;;;;;;;;;25.20;1.00;;;;;;4954586;29;19933;-64
2023/09/11 08:11:26;;;;;;;;;;;25.30;1.00;;;;;;4954680;28;19931;-63
2023/09/11 08:13:53;;;;;;;;;;;25.30;1.00;;;;;;4954647;29;19958;-63
2023/09/11 08:16:20;;;;;;;;;;;25.30;1.00;;;;;;4954329;28;19926;-63
2023/09/11 08:18:47;;;;;;;;;;;25.30;1.00;;;;;;4945406;29;19933;-63
2023/09/11 08:21:14;;;;;;;;;;;25.30;1.00;;;;;;4954626;29;19927;-63
2023/09/11 08:23:44;;;;;;;;;;;25.30;1.00;;;;;;4954744;29;19933;-64
2023/09/11 08:26:11;;;;;;;;;;;25.30;1.00;;;;;;4954073;28;19977;-64
2023/09/11 08:28:38;;;;;;;;;;;25.30;1.00;;;;;;4954526;29;19926;-64
2023/09/11 08:31:05;;;;;;;;;;;25.30;1.00;;;;;;4954198;29;19948;-64
2023/09/11 08:33:32;;;;;;;;;;;25.30;1.00;;;;;;4954486;29;19926;-64
2023/09/11 08:36:18;;;;;;;;;;;25.30;1.00;;;;;;4954132;28;19926;-63
2023/09/11 08:38:47;;;;;;;;;;;25.30;1.00;;;;;;4954332;29;20047;-64
2023/09/11 08:41:14;;;;;;;;;;;25.30;1.00;;;;;;4953745;28;19927;-66
2023/09/11 08:43:41;;;;;;;;;;;25.30;1.00;;;;;;4954181;29;19927;-64
2023/09/11 08:46:08;;;;;;;;;;;25.40;1.00;;;;;;4953923;28;19934;-64
2023/09/11 08:48:36;;;;;;;;;;;25.40;1.00;;;;;;4954235;29;20394;-64
2023/09/11 08:51:06;;;;;;;;;;;25.40;1.00;;;;;;4954101;28;19931;-64
2023/09/11 08:53:35;;;;;;;;;;;25.40;1.00;;;;;;4954144;29;19931;-64
2023/09/11 08:56:03;;;;;;;;;;;25.40;1.00;;;;;;4953554;28;19930;-63
2023/09/11 08:58:31;;;;;;;;;;;25.40;1.00;;;;;;4954093;29;19949;-64
2023/09/11 09:00:58;;;;;;;;;;;25.40;1.00;;;;;;4954033;28;19948;-64
2023/09/11 09:03:26;;;;;;;;;;;25.40;1.00;;;;;;4954090;29;19954;-64
2023/09/11 09:05:53;;;;;;;;;;;25.40;1.00;;;;;;4953577;28;20290;-63
2023/09/11 09:08:21;;;;;;;;;;;25.40;1.00;;;;;;4954098;29;20283;-64
2023/09/11 09:10:48;;;;;;;;;;;25.40;1.00;;;;;;4953807;29;19950;-64
2023/09/11 09:13:15;;;;;;;;;;;25.40;1.00;;;;;;4953901;29;19965;-64
2023/09/11 09:15:42;;;;;;;;;;;25.50;1.00;;;;;;4953852;28;19927;-64
2023/09/11 09:18:08;;;;;;;;;;;25.50;1.00;;;;;;4953711;28;19926;-64
2023/09/11 09:20:36;;;;;;;;;;;25.50;1.00;;;;;;4953805;29;19927;-64
2023/09/11 09:23:04;;;;;;;;;;;25.50;1.00;;;;;;4953639;29;19930;-64
2023/09/11 09:25:30;;;;;;;;;;;25.50;1.00;;;;;;4953738;29;20405;-64
2023/09/11 09:27:58;;;;;;;;;;;25.50;1.00;;;;;;4953730;28;19927;-64
2023/09/11 09:30:29;;;;;;;;;;;25.50;1.00;;;;;;4953624;29;19930;-63
2023/09/11 09:32:56;;;;;;;;;;;25.50;1.00;;;;;;4953744;29;19926;-64
2023/09/11 09:35:28;;;;;;;;;;;25.50;1.00;;;;;;4953805;29;19928;-63
2023/09/11 09:37:56;;;;;;;;;;;25.50;1.00;;;;;;4953316;28;19930;-64
2023/09/11 09:40:28;;;;;;;;;;;25.50;1.00;;;;;;4953554;28;19930;-64
2023/09/11 09:42:55;;;;;;;;;;;25.50;1.00;;;;;;4953660;29;19926;-64
2023/09/11 09:45:35;;;;;;;;;;;25.50;1.00;;;;;;4953667;28;19957;-64
2023/09/11 09:48:12;;;;;;;;;;;25.50;1.00;;;;;;4953028;28;19927;-64
2023/09/11 09:50:51;;;;;;;;;;;25.50;1.00;;;;;;4953684;28;19931;-64
2023/09/11 09:53:27;;;;;;;;;;;25.60;1.00;;;;;;4956222;29;19933;-64
2023/09/11 09:55:55;;;;;;;;;;;25.60;1.00;;;;;;4956648;28;20318;-64
2023/09/11 09:58:28;;;;;;;;;;;25.50;1.00;;;;;;4957283;28;19933;-64
2023/09/11 10:01:01;;;;;;;;;;;25.50;1.00;;;;;;4957110;28;20302;-64
2023/09/11 10:03:30;;;;;;;;;;;25.60;1.00;;;;;;4957055;29;20029;-64
2023/09/11 10:05:57;;;;;;;;;;;25.60;1.00;;;;;;4956818;28;20016;-64
2023/09/11 10:08:24;;;;;;;;;;;25.60;1.00;;;;;;4956781;29;20394;-64
2023/09/11 10:10:51;;;;;;;;;;;25.60;1.00;;;;;;4956794;29;20450;-64
2023/09/11 10:13:18;;;;;;;;;;;25.60;1.00;;;;;;4956659;29;20289;-64
2023/09/11 10:15:44;;;;;;;;;;;25.60;1.00;;;;;;4956520;28;19930;-63
2023/09/11 10:18:12;;;;;;;;;;;25.60;1.00;;;;;;4956351;29;19934;-63
2023/09/11 10:20:39;;;;;;;;;;;25.60;1.00;;;;;;4957069;29;19958;-64
2023/09/11 10:23:06;;;;;;;;;;;25.60;1.00;;;;;;4956455;29;19926;-63
2023/09/11 10:25:36;;;;;;;;;;;25.60;1.00;;;;;;4956379;29;19989;-64
2023/09/11 10:28:05;;;;;;;;;;;25.60;1.00;;;;;;4956198;28;19927;-64
2023/09/11 10:30:37;;;;;;;;;;;25.60;1.00;;;;;;4956293;29;19926;-64
2023/09/11 10:33:08;;;;;;;;;;;25.60;1.00;;;;;;4956293;29;19931;-64
2023/09/11 10:35:38;;;;;;;;;;;25.60;1.00;;;;;;4956402;28;19968;-62
2023/09/11 10:38:07;;;;;;;;;;;25.60;1.00;;;;;;4955659;28;20381;-64
2023/09/11 10:40:34;;;;;;;;;;;25.60;1.00;;;;;;4956257;29;20341;-63
2023/09/11 10:43:01;;;;;;;;;;;25.60;1.00;;;;;;4956265;28;19952;-63
2023/09/11 10:45:29;;;;;;;;;;;25.60;1.00;;;;;;4956157;28;20271;-64
2023/09/11 10:47:56;;;;;;;;;;;25.70;1.00;;;;;;4955782;28;20320;-63
2023/09/11 10:50:43;;;;;;;;;;;25.60;1.00;;;;;;4956212;28;20355;-64
2023/09/11 10:53:10;;;;;;;;;;;25.60;1.00;;;;;;4955736;29;19926;-64
2023/09/11 10:55:37;;;;;;;;;;;25.60;1.00;;;;;;4955817;28;19927;-64
2023/09/11 10:58:05;;;;;;;;;;;25.70;1.00;;;;;;4955518;28;19957;-65
2023/09/11 11:00:38;;;;;;;;;;;25.70;1.00;;;;;;4955905;28;19926;-65
2023/09/11 11:03:05;;;;;;;;;;;25.70;1.00;;;;;;4955484;28;19927;-64
2023/09/11 11:05:32;;;;;;;;;;;25.70;1.00;;;;;;4955855;29;19934;-63
2023/09/11 11:08:01;;;;;;;;;;;25.70;1.00;;;;;;4955502;28;20314;-63
2023/09/11 11:10:28;;;;;;;;;;;25.70;1.00;;;;;;4955879;29;19927;-62
2023/09/11 11:13:06;;;;;;;;;;;25.70;1.00;;;;;;4955884;28;19933;-63
2023/09/11 11:15:33;;;;;;;;;;;25.70;1.00;;;;;;4955723;28;19995;-63
2023/09/11 11:18:06;;;;;;;;;;;25.70;1.00;;;;;;4955299;28;20302;-62
2023/09/11 11:20:33;;;;;;;;;;;25.70;1.00;;;;;;4959233;28;19933;-63
2023/09/11 11:23:10;;;;;;;;;;;25.70;1.00;;;;;;4959819;29;19926;-63
2023/09/11 11:25:40;;;;;;;;;;;25.70;1.00;;;;;;4957709;29;20322;-64
2023/09/11 11:28:17;;;;;;;;;;;25.70;1.00;;;;;;4958668;28;19933;-64
2023/09/11 11:30:44;;;;;;;;;;;25.60;1.00;;;;;;4956691;29;19930;-64
2023/09/11 11:33:14;;;;;;;;;;;25.60;1.00;;;;;;4955493;28;19934;-64
2023/09/11 11:35:44;;;;;;;;;;;25.60;1.00;;;;;;4955327;28;19927;-64
2023/09/11 11:38:14;;;;;;;;;;;25.60;1.00;;;;;;4955074;28;19926;-64
2023/09/11 11:40:41;;;;;;;;;;;25.60;1.00;;;;;;4955201;29;19970;-64
2023/09/11 11:43:08;;;;;;;;;;;25.70;1.00;;;;;;4955202;29;19934;-64
2023/09/11 11:45:36;;;;;;;;;;;25.60;1.00;;;;;;4955090;29;19934;-63
2023/09/11 11:48:03;;;;;;;;;;;25.60;1.00;;;;;;4954841;28;19927;-64
2023/09/11 11:50:31;;;;;;;;;;;25.60;1.00;;;;;;4954907;28;20386;-64
2023/09/11 11:52:57;;;;;;;;;;;25.70;1.00;;;;;;4955204;28;19933;-64
2023/09/11 11:55:24;;;;;;;;;;;25.60;1.00;;;;;;4955080;29;19938;-64
2023/09/11 11:57:54;;;;;;;;;;;25.60;1.00;;;;;;4954976;28;19973;-63
2023/09/11 12:00:22;;;;;;;;;;;25.60;1.00;;;;;;4955127;28;20400;-64
2023/09/11 12:02:49;;;;;;;;;;;25.60;1.00;;;;;;4954764;28;19995;-64
2023/09/11 12:05:17;;;;;;;;;;;25.60;1.00;;;;;;4954858;28;19933;-64
2023/09/11 12:07:43;;;;;;;;;;;25.60;1.00;;;;;;4954324;28;20021;-64
2023/09/11 12:10:10;;;;;;;;;;;25.60;1.00;;;;;;4954712;29;19933;-62
2023/09/11 12:12:39;;;;;;;;;;;25.60;1.00;;;;;;4954678;29;19930;-64
2023/09/11 12:15:06;;;;;;;;;;;25.60;1.00;;;;;;4953667;28;19926;-64
2023/09/11 12:17:33;;;;;;;;;;;25.60;1.00;;;;;;4954166;28;19930;-63
2023/09/11 12:20:10;;;;;;;;;;;25.60;1.00;;;;;;4954481;29;19926;-63
2023/09/11 12:22:37;;;;;;;;;;;25.60;1.00;;;;;;4954481;29;19934;-62
2023/09/11 12:25:04;;;;;;;;;;;25.60;1.00;;;;;;4954652;29;19952;-63
2023/09/11 12:27:31;;;;;;;;;;;25.60;1.00;;;;;;4954057;28;19926;-62
2023/09/11 12:29:58;;;;;;;;;;;25.60;1.00;;;;;;4954308;29;19927;-63
2023/09/11 12:32:25;;;;;;;;;;;25.60;1.00;;;;;;4954290;29;19973;-63
2023/09/11 12:34:56;;;;;;;;;;;25.60;1.00;;;;;;4954178;29;20405;-62
2023/09/11 12:37:23;;;;;;;;;;;25.60;1.00;;;;;;4953992;28;19934;-62
2023/09/11 12:39:50;;;;;;;;;;;25.60;1.00;;;;;;4954519;29;19927;-63
2023/09/11 12:42:17;;;;;;;;;;;25.60;1.00;;;;;;4954195;29;19926;-63
2023/09/11 12:44:44;;;;;;;;;;;25.60;1.00;;;;;;4954284;29;19930;-63
2023/09/11 12:47:11;;;;;;;;;;;25.60;1.00;;;;;;4953755;28;19926;-63
2023/09/11 12:49:38;;;;;;;;;;;25.60;1.00;;;;;;4954040;29;19926;-63
2023/09/11 12:52:05;;;;;;;;;;;25.60;1.00;;;;;;4954112;29;20295;-63
2023/09/11 12:54:31;;;;;;;;;;;25.60;1.00;;;;;;4954177;29;20035;-63
2023/09/11 12:57:02;;;;;;;;;;;25.60;1.00;;;;;;4953720;28;19930;-63
2023/09/11 12:59:31;;;;;;;;;;;25.60;1.00;;;;;;4954213;28;19927;-63
2023/09/11 13:01:58;;;;;;;;;;;25.60;1.00;;;;;;4954071;29;20416;-64
2023/09/11 13:04:25;;;;;;;;;;;25.60;1.00;;;;;;4954081;29;20330;-64
2023/09/11 13:06:52;;;;;;;;;;;25.60;1.00;;;;;;4953594;28;20021;-64
2023/09/11 13:09:22;;;;;;;;;;;25.60;1.00;;;;;;4954040;28;19934;-64
2023/09/11 13:11:49;;;;;;;;;;;25.60;1.00;;;;;;4953848;29;19981;-64
2023/09/11 13:14:16;;;;;;;;;;;25.60;1.00;;;;;;4953644;29;19927;-64
2023/09/11 13:16:44;;;;;;;;;;;25.60;1.00;;;;;;4953545;28;20013;-64
2023/09/11 13:19:11;;;;;;;;;;;25.60;1.00;;;;;;4953722;29;19927;-64
2023/09/11 13:21:38;;;;;;;;;;;25.60;1.00;;;;;;4953931;28;19965;-64
2023/09/11 13:24:05;;;;;;;;;;;25.60;1.00;;;;;;4953868;29;19926;-64
2023/09/11 13:26:32;;;;;;;;;;;25.60;1.00;;;;;;4954996;28;19962;-64
2023/09/11 13:28:58;;;;;;;;;;;25.60;1.00;;;;;;4957547;29;19958;-64
2023/09/11 13:31:25;;;;;;;;;;;25.60;1.00;;;;;;4957392;29;19981;-64
2023/09/11 13:33:52;;;;;;;;;;;25.60;1.00;;;;;;4957514;29;20402;-64
2023/09/11 13:36:19;;;;;;;;;;;25.60;1.00;;;;;;4957155;28;20271;-64
2023/09/11 13:38:46;;;;;;;;;;;25.60;1.00;;;;;;4956159;29;19974;-64
2023/09/11 13:41:12;;;;;;;;;;;25.60;1.00;;;;;;4957117;29;20387;-64
2023/09/11 13:43:39;;;;;;;;;;;25.60;1.00;;;;;;4957276;29;19926;-64
2023/09/11 13:46:06;;;;;;;;;;;25.60;1.00;;;;;;4957135;28;20306;-64
2023/09/11 13:48:33;;;;;;;;;;;25.60;1.00;;;;;;4957209;29;20389;-64
2023/09/11 13:51:00;;;;;;;;;;;25.60;1.00;;;;;;4957256;29;19926;-65
2023/09/11 13:53:27;;;;;;;;;;;25.60;1.00;;;;;;4957240;29;19933;-64
2023/09/11 13:55:54;;;;;;;;;;;25.60;1.00;;;;;;4955707;28;19937;-64
2023/09/11 13:58:20;;;;;;;;;;;25.60;1.00;;;;;;4956782;29;20028;-64
2023/09/11 14:00:47;;;;;;;;;;;25.60;1.00;;;;;;4952151;29;20313;-65
2023/09/11 14:03:14;;;;;;;;;;;25.60;1.00;;;;;;4956648;29;19936;-65
2023/09/11 14:05:41;;;;;;;;;;;25.60;1.00;;;;;;4955796;29;20309;-64
2023/09/11 14:08:13;;;;;;;;;;;25.60;1.00;;;;;;4956861;28;20338;-64
2023/09/11 14:10:40;;;;;;;;;;;25.60;1.00;;;;;;4956780;29;19932;-64
2023/09/11 14:13:09;;;;;;;;;;;25.60;1.00;;;;;;4956943;29;19933;-64
2023/09/11 14:15:37;;;;;;;;;;;25.60;1.00;;;;;;4956741;28;19926;-64
2023/09/11 14:18:04;;;;;;;;;;;25.60;1.00;;;;;;4956367;28;20411;-64
2023/09/11 14:20:31;;;;;;;;;;;25.60;1.00;;;;;;4956625;29;19933;-64
2023/09/11 14:22:58;;;;;;;;;;;25.60;1.00;;;;;;4957169;29;20263;-64
2023/09/11 14:25:25;;;;;;;;;;;25.60;1.00;;;;;;4956498;29;20290;-64
2023/09/11 14:27:52;;;;;;;;;;;25.60;1.00;;;;;;4956452;28;19985;-64
2023/09/11 14:30:19;;;;;;;;;;;25.60;1.00;;;;;;4956468;29;19980;-64
2023/09/11 14:32:45;;;;;;;;;;;25.60;1.00;;;;;;4956572;28;19982;-64
2023/09/11 14:35:12;;;;;;;;;;;25.60;1.00;;;;;;4956520;29;19933;-64
2023/09/11 14:37:39;;;;;;;;;;;25.60;1.00;;;;;;4955314;28;19927;-65
2023/09/11 14:40:06;;;;;;;;;;;25.60;1.00;;;;;;4949110;29;19933;-64